Paines Hollow, New York
Current Conditions -  °F | °C
As of 9:53 AM on Monday 24 Nov 2014 (Local Time) from KRME Reporting Station
Broken Clouds Broken Clouds  
Wind Chill: 62°   Ceiling: 7500
Heat Index: 62°   Visibility: 10mi
Dew Point: 55°   Wind: 12mph
Humidity: 78%   Direction: 130°SE
Pressure: 29.5"   Gusts: NA
Location:  42.9627°N, 74.9432°W
Report Text: KRME 241453Z 13010KT 10SM BKN075 17/13 A2950 RMK AO2 SLP988 T01670128 56012
Loading
Personal Weather Stations






























Interactive Weather Map New forecast layout! Learn more

10-Day Weather Forecast

Advertisements
Track Severe Weather on mobile